aviador You're here:

OTHH Decoded Metar

in
Report Time2017-11-20 22:00:00
UTC Time2017-11-20 22:44:52
Flight Rules vfr VFR
Wind100° at 05 kt
W.Decomp.*RWY 16: 2.5 kt HW 4.3 kt LCW
W.Rank100° ranks 6
Current wind is below 100° avg. (7.8)
Visibility9999 m
Phenomena:N/A
Clouds:N/A
Expected CloudBase > 3,600 ft AGL from Temp-Dew spread
CeilingNone
Temp25°C
Dew Point16°C (57% RH)
QNH1015 hPa
Raw Report
METAR OTHH 202200Z 10005KT CAVOK 25/16 Q1015 NOSIG=

Extra information for OTHH:More info

Social comments